Time;durP1;ratioP1;P1;durP2;ratioP2;P2;SDS_P1;SDS_P2;PMS_P1;PMS_P2;Temp;Humidity;BMP_temperature;BMP_pressure;BME280_temperature;BME280_humidity;BME280_pressure;Samples;Min_cycle;Max_cycle;Signal;HPM_P1;HPM_P2
2022/01/29 00:00:08;;;;;;;61.63;38.30;;;6.90;99.90;;;;;;5015903;28;20125;-82
2022/01/29 00:02:34;;;;;;;60.40;39.53;;;6.90;99.90;;;;;;5015454;28;20038;-82
2022/01/29 00:05:00;;;;;;;60.25;38.70;;;6.80;99.90;;;;;;5016260;28;20055;-82
2022/01/29 00:07:25;;;;;;;64.97;39.90;;;6.90;99.90;;;;;;4983518;28;20033;-82
2022/01/29 00:09:51;;;;;;;63.58;39.78;;;6.90;99.90;;;;;;4983462;28;20050;-82
2022/01/29 00:12:17;;;;;;;62.45;42.10;;;6.80;99.90;;;;;;4983409;28;20188;-82
2022/01/29 00:14:44;;;;;;;63.05;40.65;;;6.80;99.90;;;;;;4983515;28;20073;-82
2022/01/29 00:17:12;;;;;;;68.15;44.30;;;6.90;99.90;;;;;;5015356;28;20485;-82
2022/01/29 00:19:40;;;;;;;62.03;42.13;;;6.80;99.90;;;;;;5016378;28;20073;-82
2022/01/29 00:22:06;;;;;;;63.88;43.22;;;6.90;99.90;;;;;;5000048;28;20081;-82
2022/01/29 00:24:32;;;;;;;66.07;44.45;;;6.90;99.90;;;;;;4999677;28;20048;-82
2022/01/29 00:26:58;;;;;;;66.05;44.72;;;6.90;99.90;;;;;;5023788;28;20544;-82
2022/01/29 00:29:24;;;;;;;69.90;45.13;;;6.90;99.90;;;;;;5018818;28;20072;-82
2022/01/29 00:31:50;;;;;;;71.72;46.92;;;6.90;99.90;;;;;;5002500;28;20068;-82
2022/01/29 00:34:16;;;;;;;62.53;43.53;;;6.90;99.90;;;;;;5002018;28;20040;-82
2022/01/29 00:36:41;;;;;;;68.43;45.10;;;6.90;99.90;;;;;;5002461;28;20125;-82
2022/01/29 00:39:07;;;;;;;67.88;44.70;;;6.90;99.90;;;;;;5002027;28;20045;-82
2022/01/29 00:41:33;;;;;;;64.65;43.10;;;6.90;99.90;;;;;;5002215;28;20046;-82
2022/01/29 00:43:59;;;;;;;69.15;47.47;;;6.90;99.90;;;;;;5018939;28;20080;-82
2022/01/29 00:46:25;;;;;;;70.78;48.97;;;6.90;99.90;;;;;;5019026;28;20044;-83
2022/01/29 00:48:50;;;;;;;67.63;46.75;;;6.90;99.90;;;;;;5017765;28;20048;-82
2022/01/29 00:51:16;;;;;;;73.40;50.03;;;6.90;99.90;;;;;;5002200;28;20493;-82
2022/01/29 00:53:42;;;;;;;74.05;48.45;;;6.90;99.90;;;;;;5002224;28;20049;-82
2022/01/29 00:56:09;;;;;;;70.78;48.60;;;6.80;99.90;;;;;;5018434;28;20037;-81
2022/01/29 00:58:35;;;;;;;69.60;46.58;;;6.90;99.90;;;;;;5002189;28;20041;-81
2022/01/29 01:01:01;;;;;;;68.97;45.58;;;6.90;99.90;;;;;;5001911;28;20466;-81
2022/01/29 01:03:27;;;;;;;73.85;48.35;;;6.90;99.90;;;;;;5034078;28;20045;-81
2022/01/29 01:05:52;;;;;;;71.35;45.50;;;6.90;99.90;;;;;;5018304;28;20051;-81
2022/01/29 01:08:18;;;;;;;66.10;45.70;;;6.90;99.90;;;;;;5016927;28;20042;-81
2022/01/29 01:10:44;;;;;;;74.47;48.30;;;6.90;99.90;;;;;;5001575;28;20061;-81
2022/01/29 01:13:10;;;;;;;71.25;46.15;;;6.90;99.90;;;;;;5034558;28;20084;-81
2022/01/29 01:15:35;;;;;;;71.15;47.65;;;7.00;99.90;;;;;;5018373;28;20490;-81
2022/01/29 01:18:01;;;;;;;71.35;47.55;;;6.90;99.90;;;;;;5017483;28;20043;-81
2022/01/29 01:20:28;;;;;;;71.03;47.45;;;6.90;99.90;;;;;;5001790;28;20052;-81
2022/01/29 01:22:54;;;;;;;78.63;50.13;;;6.90;99.90;;;;;;5001700;28;20038;-81
2022/01/29 01:25:19;;;;;;;81.75;49.03;;;6.90;99.90;;;;;;5001497;28;20038;-81
2022/01/29 01:27:45;;;;;;;76.90;48.30;;;6.90;99.90;;;;;;5001212;28;20037;-81
2022/01/29 01:30:11;;;;;;;69.57;45.35;;;6.80;99.90;;;;;;5001540;28;20111;-81
2022/01/29 01:32:37;;;;;;;79.53;49.47;;;6.80;99.90;;;;;;5000771;28;20041;-81
2022/01/29 01:35:12;;;;;;;65.40;41.72;;;6.80;99.90;;;;;;5017410;28;20040;-81
2022/01/29 01:37:46;;;;;;;72.90;45.97;;;6.90;99.90;;;;;;5033767;28;20103;-81
2022/01/29 01:40:13;;;;;;;72.00;47.05;;;6.80;99.90;;;;;;5017378;28;20038;-81
2022/01/29 01:42:39;;;;;;;84.35;51.45;;;6.80;99.90;;;;;;5001414;28;20148;-81
2022/01/29 01:45:05;;;;;;;85.03;52.17;;;6.80;99.90;;;;;;5034040;28;20076;-81
2022/01/29 01:47:31;;;;;;;70.78;45.08;;;6.80;99.90;;;;;;4997167;28;20041;-81
2022/01/29 01:49:57;;;;;;;85.43;51.28;;;6.90;99.90;;;;;;4981701;28;20046;-81
2022/01/29 01:52:22;;;;;;;81.95;50.40;;;6.90;99.90;;;;;;4997668;28;20077;-81
2022/01/29 01:54:48;;;;;;;80.47;49.42;;;6.80;99.90;;;;;;4997452;28;20402;-81
2022/01/29 01:57:16;;;;;;;68.22;44.30;;;6.90;99.90;;;;;;5013974;28;20128;-81
2022/01/29 01:59:42;;;;;;;72.95;45.50;;;6.90;99.90;;;;;;4997881;28;20402;-81
2022/01/29 02:02:07;;;;;;;74.13;44.47;;;6.90;99.90;;;;;;5012934;28;20065;-81
2022/01/29 02:04:33;;;;;;;74.93;45.70;;;6.90;99.90;;;;;;4997502;28;20048;-81
2022/01/29 02:07:01;;;;;;;79.95;47.78;;;6.90;99.90;;;;;;4997215;28;20512;-81
2022/01/29 02:09:27;;;;;;;66.07;44.28;;;6.90;99.90;;;;;;5014038;28;20062;-81
2022/01/29 02:12:00;;;;;;;69.07;43.72;;;6.90;99.90;;;;;;5014069;28;20411;-81
2022/01/29 02:14:30;;;;;;;73.72;43.20;;;6.90;99.90;;;;;;4997560;28;20045;-81
2022/01/29 02:16:56;;;;;;;67.63;43.17;;;6.90;99.90;;;;;;4996927;28;20037;-81
2022/01/29 02:19:22;;;;;;;68.82;41.97;;;6.90;99.90;;;;;;4997307;28;20532;-81
2022/01/29 02:21:48;;;;;;;61.50;39.90;;;6.90;99.90;;;;;;4980960;28;20042;-81
2022/01/29 02:24:14;;;;;;;61.05;36.08;;;7.00;99.90;;;;;;4997386;28;20038;-81
2022/01/29 02:26:40;;;;;;;65.63;40.92;;;7.00;99.90;;;;;;4987289;28;20120;-81
2022/01/29 02:29:06;;;;;;;66.85;42.85;;;7.00;99.90;;;;;;5033487;28;20049;-81
2022/01/29 02:31:32;;;;;;;61.80;40.53;;;7.00;99.90;;;;;;5033054;28;20046;-81
2022/01/29 02:33:58;;;;;;;55.40;34.17;;;7.10;99.90;;;;;;5032358;28;20060;-81
2022/01/29 02:36:24;;;;;;;68.55;41.53;;;7.10;99.90;;;;;;5033422;28;20033;-81
2022/01/29 02:38:50;;;;;;;62.88;37.65;;;7.60;99.90;;;;;;5017007;28;20030;-81
2022/01/29 02:41:16;;;;;;;68.55;40.15;;;7.10;99.90;;;;;;5017061;28;20040;-81
2022/01/29 02:46:53;;;;;;;66.07;40.55;;;7.20;99.90;;;;;;5033036;28;20078;-81
2022/01/29 02:48:58;;;;;;;67.03;40.63;;;7.20;99.90;;;;;;5009320;28;20045;-81
2022/01/29 02:51:24;;;;;;;68.32;41.33;;;7.20;99.90;;;;;;4984432;28;20037;-81
2022/01/29 02:53:50;;;;;;;64.07;37.90;;;7.20;99.90;;;;;;5000510;28;20087;-81
2022/01/29 02:56:16;;;;;;;66.05;41.47;;;7.20;99.90;;;;;;5033596;28;20039;-81
2022/01/29 02:58:43;;;;;;;67.90;39.55;;;7.20;99.90;;;;;;5033135;28;20129;-81
2022/01/29 03:01:09;;;;;;;75.80;42.03;;;7.20;99.90;;;;;;5016646;28;20052;-81
2022/01/29 03:03:35;;;;;;;68.85;42.83;;;7.20;99.90;;;;;;5016146;28;20056;-81
2022/01/29 03:06:08;;;;;;;73.18;44.22;;;7.20;99.90;;;;;;5016716;28;20034;-81
2022/01/29 03:08:33;;;;;;;77.65;44.58;;;7.20;99.90;;;;;;5000934;28;20041;-81
2022/01/29 03:10:59;;;;;;;71.85;42.33;;;7.20;99.90;;;;;;4983868;28;20058;-81
2022/01/29 03:13:25;;;;;;;72.93;41.75;;;7.30;99.90;;;;;;5016210;28;20042;-81
2022/01/29 03:15:51;;;;;;;75.55;42.53;;;7.20;99.90;;;;;;4999990;28;20152;-81
2022/01/29 03:18:16;;;;;;;81.22;45.33;;;7.30;99.90;;;;;;5015340;28;20044;-81
2022/01/29 03:20:42;;;;;;;72.13;38.35;;;7.20;99.90;;;;;;5012387;28;20088;-81
2022/01/29 03:23:08;;;;;;;76.78;45.60;;;7.30;99.90;;;;;;4980786;28;20033;-81
2022/01/29 03:25:34;;;;;;;74.22;41.63;;;7.20;99.90;;;;;;4980593;28;20045;-81
2022/01/29 03:28:00;;;;;;;75.60;42.35;;;7.30;99.90;;;;;;4980456;28;20056;-81
2022/01/29 03:30:25;;;;;;;82.10;43.83;;;7.30;99.90;;;;;;4964318;28;20049;-81
2022/01/29 03:32:51;;;;;;;81.10;44.58;;;7.40;99.90;;;;;;4999994;28;20092;-81
2022/01/29 03:35:17;;;;;;;92.22;49.17;;;7.30;99.90;;;;;;5001126;28;20038;-81
2022/01/29 03:37:43;;;;;;;84.75;45.10;;;7.30;99.90;;;;;;5016974;28;20073;-81
2022/01/29 03:40:08;;;;;;;91.53;49.55;;;7.30;99.90;;;;;;5000850;28;20080;-81
2022/01/29 03:42:43;;;;;;;87.18;47.72;;;7.30;99.90;;;;;;4968700;28;20116;-81
2022/01/29 03:45:10;;;;;;;77.13;46.08;;;7.30;99.90;;;;;;5016924;28;20045;-81
2022/01/29 03:47:35;;;;;;;88.28;47.50;;;7.30;99.90;;;;;;5015833;28;20033;-81
2022/01/29 03:50:02;;;;;;;87.97;47.17;;;7.30;99.90;;;;;;5036303;28;20037;-81
2022/01/29 03:52:28;;;;;;;77.97;44.40;;;7.30;99.90;;;;;;5036659;28;20053;-81
2022/01/29 03:54:53;;;;;;;85.93;45.58;;;7.40;99.90;;;;;;5020045;28;20052;-81
2022/01/29 03:57:19;;;;;;;81.18;44.85;;;7.30;99.90;;;;;;5019765;28;20060;-81
2022/01/29 03:59:45;;;;;;;85.25;47.63;;;7.30;99.90;;;;;;5020043;28;20515;-81
2022/01/29 04:02:10;;;;;;;84.63;47.17;;;7.40;99.90;;;;;;5002669;28;20044;-81
2022/01/29 04:04:36;;;;;;;87.32;47.20;;;7.30;99.90;;;;;;5003314;28;20041;-81
2022/01/29 04:07:09;;;;;;;89.55;47.53;;;7.40;99.90;;;;;;5035594;28;20063;-81
2022/01/29 04:09:35;;;;;;;91.35;48.92;;;7.30;99.90;;;;;;5021866;28;20049;-81
2022/01/29 04:12:02;;;;;;;86.07;46.17;;;7.40;99.90;;;;;;5006494;28;20049;-81
2022/01/29 04:14:38;;;;;;;90.70;46.53;;;7.40;99.90;;;;;;5023093;28;20045;-81
2022/01/29 04:17:05;;;;;;;87.07;46.78;;;7.30;99.90;;;;;;5007371;28;20064;-81
2022/01/29 04:19:32;;;;;;;78.80;44.63;;;7.40;99.90;;;;;;5022874;28;20037;-81
2022/01/29 04:21:58;;;;;;;88.20;46.10;;;7.40;99.90;;;;;;5038808;28;20131;-81
2022/01/29 04:24:23;;;;;;;86.28;46.05;;;7.50;99.90;;;;;;5023240;28;20120;-81
2022/01/29 04:26:49;;;;;;;78.72;43.92;;;7.60;99.90;;;;;;5022824;28;20041;-81
2022/01/29 04:29:15;;;;;;;80.50;43.70;;;7.50;99.90;;;;;;5022635;28;20041;-81
2022/01/29 04:31:57;;;;;;;65.90;34.95;;;7.60;99.90;;;;;;5023022;28;20409;-81
2022/01/29 04:34:23;;;;;;;69.03;38.15;;;7.60;99.90;;;;;;5008498;28;20477;-81
2022/01/29 04:36:49;;;;;;;81.35;42.30;;;7.60;99.90;;;;;;5011058;28;20064;-81
2022/01/29 04:39:14;;;;;;;67.80;39.05;;;7.70;99.90;;;;;;5022494;28;20479;-81
2022/01/29 04:41:40;;;;;;;73.95;41.22;;;7.70;99.90;;;;;;5005690;28;20082;-81
2022/01/29 04:44:06;;;;;;;64.70;37.17;;;7.70;99.90;;;;;;5005803;28;20131;-81
2022/01/29 04:46:32;;;;;;;58.60;31.80;;;7.70;99.90;;;;;;5022300;28;20041;-81
2022/01/29 04:48:57;;;;;;;61.95;34.90;;;7.80;99.90;;;;;;5021631;28;20052;-81
2022/01/29 04:51:23;;;;;;;60.67;33.88;;;7.90;99.90;;;;;;5005873;28;20045;-81
2022/01/29 04:53:49;;;;;;;60.13;35.80;;;7.80;99.90;;;;;;5005968;28;20051;-81
2022/01/29 04:56:15;;;;;;;61.28;34.72;;;7.80;99.90;;;;;;5006189;28;20047;-81
2022/01/29 04:58:40;;;;;;;62.50;36.10;;;7.80;99.90;;;;;;5005630;28;20037;-81
2022/01/29 05:01:06;;;;;;;59.15;33.28;;;7.90;99.90;;;;;;5005516;28;20076;-81
2022/01/29 05:03:33;;;;;;;59.70;34.85;;;7.90;99.90;;;;;;5020737;28;20041;-81
2022/01/29 05:06:00;;;;;;;55.17;33.60;;;7.90;99.90;;;;;;5021898;28;20143;-81
2022/01/29 05:08:25;;;;;;;55.90;32.42;;;8.00;99.90;;;;;;5021871;28;20047;-81
2022/01/29 05:10:53;;;;;;;56.17;33.42;;;8.00;99.90;;;;;;5037861;28;20158;-81
2022/01/29 05:13:22;;;;;;;52.55;31.10;;;8.00;99.90;;;;;;5021927;28;20149;-81
2022/01/29 05:26:54;;;;;;;48.50;29.83;;;8.10;99.90;;;;;;5023769;28;20131;-81
2022/01/29 05:29:20;;;;;;;50.53;29.50;;;8.10;99.90;;;;;;5038235;28;20045;-81
2022/01/29 05:31:51;;;;;;;46.78;31.50;;;8.20;99.90;;;;;;5020962;28;20132;-81
2022/01/29 05:34:17;;;;;;;49.28;30.55;;;8.30;99.90;;;;;;5037747;28;20500;-81
2022/01/29 05:36:42;;;;;;;53.38;32.42;;;8.20;99.90;;;;;;5021412;28;20033;-81
2022/01/29 05:39:08;;;;;;;48.50;29.83;;;8.20;99.90;;;;;;5030793;28;20452;-81
2022/01/29 05:41:34;;;;;;;49.08;30.50;;;8.20;99.90;;;;;;5028585;28;20045;-81
2022/01/29 05:44:00;;;;;;;42.90;26.40;;;8.20;99.90;;;;;;5012803;28;20033;-81
2022/01/29 05:46:25;;;;;;;42.38;29.65;;;8.30;99.90;;;;;;5037085;28;20036;-81
2022/01/29 05:48:51;;;;;;;50.63;29.55;;;8.30;99.90;;;;;;5036666;28;20039;-81
2022/01/29 05:51:17;;;;;;;41.58;28.95;;;8.20;99.90;;;;;;5036591;28;20128;-81
2022/01/29 05:53:42;;;;;;;44.97;28.85;;;8.30;99.90;;;;;;5029868;28;20044;-81
2022/01/29 05:56:08;;;;;;;46.13;29.67;;;8.30;99.90;;;;;;5008670;28;20477;-81
2022/01/29 05:58:34;;;;;;;47.03;30.23;;;8.30;99.90;;;;;;5035152;28;20040;-81
2022/01/29 06:01:00;;;;;;;47.30;30.13;;;8.30;99.90;;;;;;5036407;28;20492;-81
2022/01/29 06:03:26;;;;;;;41.33;26.48;;;8.40;99.90;;;;;;5031990;28;20048;-81
2022/01/29 06:05:51;;;;;;;47.72;28.55;;;8.30;99.90;;;;;;5024044;28;20139;-81
2022/01/29 06:08:19;;;;;;;45.08;28.80;;;8.40;99.90;;;;;;5036454;28;20549;-81
2022/01/29 06:10:45;;;;;;;41.45;28.67;;;8.40;99.90;;;;;;5030595;28;20045;-81
2022/01/29 06:13:13;;;;;;;43.65;28.77;;;8.40;99.90;;;;;;5036686;28;20037;-81
2022/01/29 06:15:46;;;;;;;43.58;29.60;;;8.40;99.90;;;;;;5037034;28;20488;-81
2022/01/29 06:18:17;;;;;;;41.13;27.42;;;8.40;99.90;;;;;;5019201;28;20119;-81
2022/01/29 06:20:50;;;;;;;44.13;29.92;;;8.40;99.90;;;;;;5036158;28;20067;-81
2022/01/29 06:23:20;;;;;;;45.72;28.58;;;8.40;99.90;;;;;;5019607;28;20055;-81
2022/01/29 06:25:46;;;;;;;39.90;29.27;;;8.40;99.90;;;;;;5019738;28;20553;-81
2022/01/29 06:28:12;;;;;;;42.95;28.25;;;8.40;99.90;;;;;;5025181;28;20037;-81
2022/01/29 06:30:38;;;;;;;39.95;26.60;;;8.40;99.90;;;;;;4987514;28;20396;-81
2022/01/29 06:33:12;;;;;;;39.63;26.70;;;8.50;99.90;;;;;;5019773;28;20145;-81
2022/01/29 06:35:40;;;;;;;42.60;28.63;;;8.50;99.90;;;;;;5017440;28;20041;-81
2022/01/29 06:38:07;;;;;;;37.35;26.05;;;8.50;99.90;;;;;;5018667;28;20041;-81
2022/01/29 06:40:34;;;;;;;42.55;26.92;;;8.50;99.90;;;;;;5036198;28;20033;-81
2022/01/29 06:43:01;;;;;;;35.10;24.83;;;8.50;99.90;;;;;;5035752;28;20501;-81
2022/01/29 06:45:31;;;;;;;36.40;25.02;;;8.60;99.90;;;;;;5019689;28;20055;-81
2022/01/29 06:47:57;;;;;;;39.58;26.40;;;8.60;99.90;;;;;;5035335;28;20032;-81
2022/01/29 06:50:24;;;;;;;35.22;24.95;;;8.60;99.90;;;;;;5019468;28;20045;-81
2022/01/29 06:52:50;;;;;;;34.63;23.33;;;8.60;99.90;;;;;;5019400;28;20090;-81
2022/01/29 06:55:16;;;;;;;33.13;22.27;;;8.60;99.90;;;;;;5036991;28;20444;-81
2022/01/29 06:57:42;;;;;;;34.38;23.70;;;8.60;99.90;;;;;;5019800;28;20207;-81
2022/01/29 07:00:08;;;;;;;30.90;19.67;;;8.70;99.90;;;;;;5020445;28;20040;-81
2022/01/29 07:02:35;;;;;;;31.85;20.98;;;8.70;99.90;;;;;;5019177;28;20045;-81
2022/01/29 07:05:03;;;;;;;32.60;21.50;;;8.70;99.90;;;;;;5036383;28;20495;-81
2022/01/29 07:07:28;;;;;;;31.50;22.17;;;8.70;99.90;;;;;;5035832;28;20044;-81
2022/01/29 07:09:54;;;;;;;33.50;22.05;;;8.70;99.90;;;;;;5025193;28;20052;-81
2022/01/29 07:12:20;;;;;;;30.50;20.73;;;8.70;99.90;;;;;;5019252;28;20433;-81
2022/01/29 07:14:49;;;;;;;31.15;20.90;;;8.70;99.90;;;;;;5003604;28;20084;-81
2022/01/29 07:17:17;;;;;;;27.20;19.73;;;8.70;99.90;;;;;;5018279;28;20466;-81
2022/01/29 07:19:44;;;;;;;25.55;18.00;;;8.70;99.90;;;;;;5028616;28;20425;-81
2022/01/29 07:22:10;;;;;;;31.05;19.52;;;8.70;99.90;;;;;;5016942;28;20102;-81
2022/01/29 07:24:36;;;;;;;27.20;18.38;;;8.80;99.90;;;;;;5018014;28;20041;-81
2022/01/29 07:27:03;;;;;;;30.38;20.60;;;8.80;99.90;;;;;;4996051;28;20600;-81
2022/01/29 07:29:29;;;;;;;26.08;18.52;;;8.80;99.90;;;;;;5049281;28;20041;-81
2022/01/29 07:31:58;;;;;;;27.77;17.65;;;8.80;99.90;;;;;;5018747;28;20403;-81
2022/01/29 07:34:25;;;;;;;29.35;18.70;;;8.80;99.90;;;;;;5019254;28;20120;-81
2022/01/29 07:36:52;;;;;;;26.58;17.75;;;8.80;99.90;;;;;;5028565;28;20045;-81
2022/01/29 07:39:19;;;;;;;28.73;19.00;;;8.80;99.90;;;;;;5010113;28;20073;-81
2022/01/29 07:41:44;;;;;;;28.25;18.63;;;8.80;99.90;;;;;;5018839;28;20438;-81
2022/01/29 07:44:10;;;;;;;28.58;18.83;;;8.90;99.90;;;;;;5035534;28;20072;-81
2022/01/29 07:46:36;;;;;;;25.23;17.67;;;8.80;99.90;;;;;;5035834;28;20037;-81
2022/01/29 07:49:02;;;;;;;26.25;19.05;;;8.80;99.90;;;;;;5018391;28;20127;-81
2022/01/29 07:51:28;;;;;;;27.40;18.90;;;8.80;99.90;;;;;;5035749;28;20565;-81
2022/01/29 07:53:54;;;;;;;29.35;19.13;;;8.80;99.90;;;;;;5035538;28;20119;-81
2022/01/29 07:56:22;;;;;;;27.65;19.08;;;8.80;99.90;;;;;;5035250;28;20040;-81
2022/01/29 07:58:49;;;;;;;31.63;21.08;;;8.80;99.90;;;;;;5002968;28;20041;-81
2022/01/29 08:01:15;;;;;;;27.95;18.40;;;8.80;99.90;;;;;;5047985;28;20059;-81
2022/01/29 08:03:41;;;;;;;28.15;18.88;;;8.80;99.90;;;;;;5018793;28;20044;-81
2022/01/29 08:06:07;;;;;;;28.63;19.52;;;8.80;99.90;;;;;;5018987;28;20132;-81
2022/01/29 08:08:33;;;;;;;29.38;18.92;;;8.80;99.90;;;;;;4986660;28;20047;-81
2022/01/29 08:11:00;;;;;;;29.58;18.83;;;8.80;99.90;;;;;;5015123;28;20076;-81
2022/01/29 08:13:25;;;;;;;29.00;19.65;;;8.70;99.90;;;;;;4999924;28;20040;-82
2022/01/29 08:15:51;;;;;;;27.35;17.13;;;8.80;99.90;;;;;;4983167;28;20038;-82
2022/01/29 08:18:17;;;;;;;30.65;19.52;;;8.80;99.90;;;;;;5009413;28;20056;-81
2022/01/29 08:20:42;;;;;;;29.40;20.55;;;8.80;99.90;;;;;;5014467;28;20037;-81
2022/01/29 08:23:09;;;;;;;28.80;19.90;;;8.80;99.90;;;;;;5000752;28;20090;-81
2022/01/29 08:25:37;;;;;;;32.25;19.95;;;8.80;99.90;;;;;;5016185;28;20064;-81
2022/01/29 08:28:03;;;;;;;29.00;18.42;;;8.80;99.90;;;;;;5001385;28;20041;-81
2022/01/29 08:30:29;;;;;;;30.65;19.38;;;8.80;99.90;;;;;;5018718;28;20542;-81
2022/01/29 08:32:54;;;;;;;26.17;17.98;;;8.90;99.90;;;;;;5019995;28;20037;-81
2022/01/29 08:35:20;;;;;;;29.58;18.83;;;8.80;99.90;;;;;;5003668;28;20086;-81
2022/01/29 08:37:46;;;;;;;26.25;17.23;;;8.80;99.90;;;;;;5033247;28;20045;-82
2022/01/29 08:40:12;;;;;;;27.17;18.48;;;8.90;99.90;;;;;;5017084;28;20033;-82
2022/01/29 08:42:39;;;;;;;24.52;16.35;;;8.90;99.90;;;;;;4995219;28;20067;-82
2022/01/29 08:45:07;;;;;;;24.45;17.27;;;8.90;99.90;;;;;;5000069;28;20041;-81
2022/01/29 08:47:33;;;;;;;23.40;15.43;;;9.00;99.90;;;;;;5016824;28;20072;-81
2022/01/29 08:50:02;;;;;;;25.88;16.52;;;9.00;99.90;;;;;;5020378;28;20077;-81
2022/01/29 08:52:29;;;;;;;22.90;16.13;;;9.00;99.90;;;;;;5015492;28;20124;-81
2022/01/29 08:54:55;;;;;;;21.75;14.55;;;9.00;99.90;;;;;;5030454;28;20116;-81
2022/01/29 08:57:20;;;;;;;21.77;14.60;;;9.10;99.90;;;;;;5036635;28;20075;-82
2022/01/29 08:59:46;;;;;;;20.80;14.27;;;9.10;99.90;;;;;;5011512;28;20090;-82
2022/01/29 09:02:12;;;;;;;22.20;14.15;;;9.10;99.90;;;;;;5036846;28;20055;-82
2022/01/29 09:04:37;;;;;;;21.73;14.00;;;9.10;99.90;;;;;;5017467;28;20421;-82
2022/01/29 09:07:03;;;;;;;19.13;12.52;;;9.20;99.90;;;;;;5027530;28;20124;-82
2022/01/29 09:09:29;;;;;;;22.23;13.23;;;9.30;99.90;;;;;;5037556;28;20059;-82
2022/01/29 09:11:55;;;;;;;17.15;11.05;;;9.30;99.90;;;;;;5013145;28;20057;-82
2022/01/29 09:14:21;;;;;;;17.20;11.57;;;9.20;99.90;;;;;;5012729;28;20037;-82
2022/01/29 09:16:47;;;;;;;14.95;10.63;;;9.30;99.90;;;;;;5027474;28;20048;-82
2022/01/29 09:19:13;;;;;;;19.33;10.13;;;9.40;99.90;;;;;;4997191;28;20041;-81
2022/01/29 09:21:39;;;;;;;17.90;10.52;;;9.40;99.90;;;;;;5009895;28;20507;-81
2022/01/29 09:24:05;;;;;;;19.25;10.77;;;9.40;99.90;;;;;;5007128;28;20047;-81
2022/01/29 09:26:30;;;;;;;15.95;9.52;;;9.40;99.90;;;;;;5031468;28;20094;-81
2022/01/29 09:28:56;;;;;;;18.02;9.45;;;9.50;99.90;;;;;;5005358;28;20561;-81
2022/01/29 09:31:22;;;;;;;16.50;9.57;;;9.50;99.90;;;;;;5008132;28;20404;-81
2022/01/29 09:33:48;;;;;;;15.02;9.43;;;9.50;99.90;;;;;;4982987;28;20038;-81
2022/01/29 09:36:14;;;;;;;16.02;8.70;;;9.50;99.90;;;;;;4992428;28;20029;-82
2022/01/29 09:38:40;;;;;;;16.65;8.95;;;9.60;99.90;;;;;;5008001;28;20041;-82
2022/01/29 09:41:07;;;;;;;15.25;8.70;;;9.50;99.90;;;;;;5006429;28;20046;-82
2022/01/29 09:43:35;;;;;;;14.15;9.30;;;9.70;99.90;;;;;;5021496;28;20428;-81
2022/01/29 09:46:02;;;;;;;17.27;9.73;;;9.60;99.90;;;;;;5008467;28;20068;-81
2022/01/29 09:48:29;;;;;;;17.17;9.38;;;9.70;99.90;;;;;;5010576;28;20401;-81
2022/01/29 09:50:57;;;;;;;17.20;9.00;;;9.70;99.90;;;;;;5013045;28;20111;-81
2022/01/29 09:53:23;;;;;;;13.15;8.23;;;9.70;99.90;;;;;;5010631;28;20458;-81
2022/01/29 09:55:49;;;;;;;16.52;8.88;;;9.70;99.90;;;;;;5026446;28;20068;-81
2022/01/29 09:58:15;;;;;;;14.68;9.18;;;9.70;99.90;;;;;;5025946;28;20485;-81
2022/01/29 10:00:42;;;;;;;16.95;9.20;;;9.70;99.90;;;;;;5006606;28;20044;-81
2022/01/29 10:03:11;;;;;;;17.23;9.40;;;9.80;99.90;;;;;;5004857;28;20050;-81
2022/01/29 10:05:40;;;;;;;14.82;9.20;;;9.80;99.90;;;;;;5009554;28;20041;-82
2022/01/29 10:08:06;;;;;;;14.15;8.45;;;9.80;99.90;;;;;;5015675;28;20040;-82
2022/01/29 10:10:47;;;;;;;14.27;8.88;;;9.80;99.90;;;;;;5029422;28;20061;-82
2022/01/29 10:13:27;;;;;;;16.15;8.40;;;9.80;99.90;;;;;;5032093;28;20056;-81
2022/01/29 10:16:12;;;;;;;14.80;8.73;;;9.80;99.90;;;;;;5026894;28;20033;-81
2022/01/29 10:18:40;;;;;;;17.38;8.43;;;9.80;99.90;;;;;;5030164;28;20596;-81
2022/01/29 10:21:22;;;;;;;13.73;8.27;;;9.80;99.90;;;;;;5008937;28;20041;-81
2022/01/29 10:23:58;;;;;;;16.33;8.10;;;9.80;99.90;;;;;;5027405;28;20048;-81
2022/01/29 10:26:44;;;;;;;14.48;8.20;;;9.80;99.90;;;;;;5030484;28;20062;-82
2022/01/29 10:29:17;;;;;;;13.27;7.88;;;9.80;99.90;;;;;;5014739;28;20033;-82
2022/01/29 10:31:45;;;;;;;14.07;8.98;;;9.80;99.90;;;;;;5031332;28;20036;-82
2022/01/29 10:34:27;;;;;;;11.90;6.93;;;9.80;99.90;;;;;;5033128;28;20037;-82
2022/01/29 10:37:12;;;;;;;12.82;7.75;;;9.80;99.90;;;;;;5030210;28;20075;-82
2022/01/29 10:39:39;;;;;;;14.45;7.72;;;9.80;99.90;;;;;;5033557;28;20041;-82
2022/01/29 10:42:24;;;;;;;13.90;6.95;;;9.80;99.90;;;;;;5015492;28;20037;-82
2022/01/29 10:45:02;;;;;;;12.90;7.05;;;9.80;99.90;;;;;;5009688;28;20041;-82
2022/01/29 10:47:30;;;;;;;14.43;7.28;;;9.80;99.90;;;;;;5015215;28;20036;-82
2022/01/29 10:50:05;;;;;;;14.13;7.22;;;9.80;99.90;;;;;;5031294;28;20485;-81
2022/01/29 10:52:35;;;;;;;14.82;6.60;;;9.90;99.90;;;;;;5024340;28;20056;-82
2022/01/29 10:55:08;;;;;;;13.38;6.50;;;9.90;99.90;;;;;;5027678;28;20062;-82
2022/01/29 10:57:41;;;;;;;11.07;5.60;;;9.90;99.90;;;;;;5032728;28;20129;-81
2022/01/29 11:00:18;;;;;;;13.95;6.05;;;9.90;99.90;;;;;;5014121;28;20080;-81
2022/01/29 11:02:44;;;;;;;12.63;5.93;;;10.00;99.90;;;;;;5032250;28;20047;-81
2022/01/29 11:05:11;;;;;;;12.75;5.40;;;10.00;99.90;;;;;;5000944;28;20036;-81
2022/01/29 11:07:38;;;;;;;11.63;5.18;;;10.10;99.90;;;;;;4995562;28;20504;-82
2022/01/29 11:10:09;;;;;;;11.10;4.80;;;10.10;99.90;;;;;;5036051;28;20050;-82
2022/01/29 11:12:37;;;;;;;12.05;5.10;;;10.10;99.90;;;;;;5032648;28;20049;-82
2022/01/29 11:15:04;;;;;;;11.70;4.88;;;10.10;99.90;;;;;;5011573;28;20041;-81
2022/01/29 11:17:31;;;;;;;11.35;4.93;;;10.10;99.90;;;;;;5026610;28;20033;-81
2022/01/29 11:19:58;;;;;;;15.35;4.85;;;10.20;99.90;;;;;;5012365;28;20520;-81
2022/01/29 11:22:39;;;;;;;11.40;4.75;;;10.20;99.90;;;;;;5001903;28;20069;-81
2022/01/29 11:25:23;;;;;;;10.75;4.50;;;10.30;99.90;;;;;;5010751;28;20045;-81
2022/01/29 11:28:15;;;;;;;10.20;4.43;;;10.30;99.90;;;;;;5011068;28;20040;-82
2022/01/29 11:30:43;;;;;;;;;;;10.40;99.90;;;;;;5018342;28;20079;-82
2022/01/29 11:33:08;;;;;;;11.57;3.97;;;10.40;99.90;;;;;;5017160;28;19923;-81
2022/01/29 11:35:51;;;;;;;10.10;3.75;;;10.40;99.90;;;;;;4997149;28;20481;-81
2022/01/29 11:38:36;;;;;;;;;;;10.40;99.90;;;;;;5030661;28;20033;-82
2022/01/29 11:41:05;;;;;;;8.85;3.15;;;10.30;99.90;;;;;;5009218;28;19917;-82
2022/01/29 11:43:36;;;;;;;11.93;4.10;;;10.40;99.90;;;;;;4995410;28;20120;-82
2022/01/29 11:46:31;;;;;;;10.55;3.78;;;10.40;99.90;;;;;;5012986;28;20037;-81
2022/01/29 11:48:59;;;;;;;11.57;3.80;;;10.30;99.90;;;;;;5038080;28;20099;-82
2022/01/29 11:51:43;;;;;;;13.90;4.20;;;10.30;99.90;;;;;;5017467;28;20451;-82
2022/01/29 11:54:10;;;;;;;12.40;3.90;;;10.40;99.90;;;;;;5038028;28;20041;-82
2022/01/29 11:56:41;;;;;;;9.65;3.80;;;10.30;99.90;;;;;;5029533;28;20485;-82
2022/01/29 11:59:26;;;;;;;12.05;3.97;;;10.30;99.90;;;;;;5032670;28;20076;-81
2022/01/29 12:01:57;;;;;;;11.35;3.65;;;10.40;99.90;;;;;;5034504;28;20404;-81
2022/01/29 12:04:43;;;;;;;10.85;3.50;;;10.40;99.90;;;;;;5035729;28;20102;-81
2022/01/29 12:07:15;;;;;;;12.93;4.05;;;10.40;99.90;;;;;;5016879;28;20094;-82
2022/01/29 12:10:03;;;;;;;12.68;3.90;;;10.30;99.90;;;;;;5010307;28;20045;-82
2022/01/29 12:12:30;;;;;;;10.07;3.35;;;10.40;99.90;;;;;;5013598;28;20044;-82
2022/01/29 12:15:11;;;;;;;9.07;3.30;;;10.40;99.90;;;;;;5032068;28;20579;-82
2022/01/29 12:17:43;;;;;;;11.55;3.30;;;10.50;99.90;;;;;;5010660;28;20037;-82
2022/01/29 12:20:14;;;;;;;8.60;2.95;;;10.50;99.90;;;;;;5030458;28;20055;-82
2022/01/29 12:22:41;;;;;;;9.50;3.00;;;10.50;99.90;;;;;;5036914;28;20520;-82
2022/01/29 12:25:16;;;;;;;9.50;2.70;;;10.50;99.90;;;;;;5001490;28;20127;-82
2022/01/29 12:27:57;;;;;;;9.68;3.00;;;10.50;99.90;;;;;;5016293;28;20045;-82
2022/01/29 12:30:26;;;;;;;11.63;2.83;;;10.60;99.90;;;;;;5027691;28;20395;-81
2022/01/29 12:32:56;;;;;;;12.55;2.80;;;10.60;99.90;;;;;;5014242;28;20087;-82
2022/01/29 12:35:30;;;;;;;9.68;2.58;;;10.60;99.90;;;;;;5011655;28;20124;-82
2022/01/29 12:37:56;;;;;;;9.77;2.83;;;10.70;99.90;;;;;;5032909;28;20029;-81
2022/01/29 12:40:23;;;;;;;9.07;2.47;;;10.70;99.90;;;;;;5018344;28;20042;-81
2022/01/29 12:42:56;;;;;;;9.73;2.85;;;10.60;99.90;;;;;;5004854;28;20052;-82
2022/01/29 12:45:24;;;;;;;10.00;2.50;;;10.70;99.90;;;;;;5001506;28;20095;-82
2022/01/29 12:48:09;;;;;;;8.25;2.55;;;10.60;99.90;;;;;;5013083;28;20041;-82
2022/01/29 12:50:35;;;;;;;8.27;2.63;;;10.70;99.90;;;;;;5015586;28;20037;-81
2022/01/29 12:53:10;;;;;;;10.32;2.65;;;10.70;99.90;;;;;;5017420;28;20038;-82
2022/01/29 12:55:36;;;;;;;9.23;2.50;;;10.80;99.90;;;;;;5012704;28;20551;-82